Time;durP1;ratioP1;P1;durP2;ratioP2;P2;SDS_P1;SDS_P2;PMS_P1;PMS_P2;Temp;Humidity;BMP_temperature;BMP_pressure;BME280_temperature;BME280_humidity;BME280_pressure;Samples;Min_cycle;Max_cycle;Signal;HPM_P1;HPM_P2
2023/10/30 00:00:32;;;;;;;20.37;7.57;;;;;;;13.01;51.51;100701.13;124787;1105;104194;-77
2023/10/30 00:03:20;;;;;;;21.33;7.40;;;;;;;13.02;51.09;100702.00;124670;1105;102017;-77
2023/10/30 00:05:49;;;;;;;20.20;6.70;;;;;;;13.01;51.35;100706.39;124873;1105;104147;-78
2023/10/30 00:08:18;;;;;;;18.03;6.77;;;;;;;12.97;51.33;100711.52;124869;1104;102230;-78
2023/10/30 00:10:47;;;;;;;20.37;7.07;;;;;;;12.95;51.49;100708.84;124687;1105;104286;-78
2023/10/30 00:13:16;;;;;;;16.07;6.30;;;;;;;12.95;51.58;100711.48;124705;1105;102128;-78
2023/10/30 00:15:44;;;;;;;16.90;6.10;;;;;;;12.91;51.38;100715.73;124803;1105;104179;-78
2023/10/30 00:18:13;;;;;;;17.90;6.13;;;;;;;12.92;51.26;100716.66;124827;1105;103020;-77
2023/10/30 00:20:41;;;;;;;19.20;6.20;;;;;;;12.94;51.51;100714.95;124785;1105;104204;-78
2023/10/30 00:23:10;;;;;;;17.83;5.90;;;;;;;12.95;52.00;100714.11;124757;1105;102142;-78
2023/10/30 00:25:39;;;;;;;15.93;6.20;;;;;;;12.98;51.40;100714.20;124723;1105;104057;-77
2023/10/30 00:28:07;;;;;;;14.57;5.87;;;;;;;13.01;51.97;100716.02;124815;1104;104360;-78
2023/10/30 00:30:36;;;;;;;17.97;5.57;;;;;;;13.05;52.10;100712.63;124686;1105;104304;-77
2023/10/30 00:33:04;;;;;;;16.87;5.90;;;;;;;13.08;51.64;100708.33;124691;1106;101875;-78
2023/10/30 00:35:33;;;;;;;15.80;5.25;;;;;;;13.13;51.81;100701.48;124685;1105;102070;-78
2023/10/30 00:38:02;;;;;;;15.07;5.67;;;;;;;13.16;52.18;100694.50;124705;1105;104683;-78
2023/10/30 00:40:32;;;;;;;18.73;5.30;;;;;;;13.18;51.88;100704.20;124716;1105;102166;-78
2023/10/30 00:43:01;;;;;;;13.40;5.40;;;;;;;13.20;51.57;100699.90;124651;1103;102204;-78
2023/10/30 00:45:29;;;;;;;15.33;5.10;;;;;;;13.22;51.89;100692.92;124732;1105;104258;-78
2023/10/30 00:47:58;;;;;;;14.60;5.40;;;;;;;13.25;52.44;100689.48;124502;1105;101963;-78
2023/10/30 00:50:26;;;;;;;18.03;5.47;;;;;;;13.26;51.91;100696.52;124614;1105;104248;-79
2023/10/30 00:52:55;;;;;;;16.20;5.40;;;;;;;13.29;52.02;100693.97;124653;1105;104313;-78
2023/10/30 00:55:24;;;;;;;15.05;5.10;;;;;;;13.31;52.50;100690.54;124565;1105;104272;-77
2023/10/30 00:57:53;;;;;;;16.30;4.80;;;;;;;13.36;52.24;100688.06;124644;1105;104210;-78
2023/10/30 01:00:21;;;;;;;11.50;4.67;;;;;;;13.39;52.22;100689.91;124732;1105;102125;-78
2023/10/30 01:02:50;;;;;;;13.93;5.10;;;;;;;13.41;52.12;100691.70;124647;1105;104083;-78
2023/10/30 01:05:19;;;;;;;13.20;4.97;;;;;;;13.44;52.13;100696.19;124624;1105;104070;-78
2023/10/30 01:07:47;;;;;;;16.90;4.80;;;;;;;13.45;52.53;100687.44;124645;1105;101980;-77
2023/10/30 01:10:16;;;;;;;17.13;4.50;;;;;;;13.46;52.59;100689.20;124641;1105;101894;-78
2023/10/30 01:12:45;;;;;;;14.33;4.87;;;;;;;13.46;52.60;100700.66;124714;1105;102303;-79
2023/10/30 01:15:14;;;;;;;13.87;5.13;;;;;;;13.42;51.97;100696.14;124634;1105;102034;-79
2023/10/30 01:17:42;;;;;;;11.00;4.17;;;;;;;13.42;51.80;100692.62;124722;1105;104179;-78
2023/10/30 01:20:13;;;;;;;13.40;4.53;;;;;;;13.40;52.04;100689.03;124662;1104;104237;-79
2023/10/30 01:22:41;;;;;;;14.83;4.83;;;;;;;13.42;52.55;100687.35;124797;1105;102089;-78
2023/10/30 01:25:10;;;;;;;15.00;4.70;;;;;;;13.44;51.77;100686.52;124764;1105;102192;-78
2023/10/30 01:27:39;;;;;;;12.20;4.33;;;;;;;13.45;52.67;100690.07;124678;1105;102106;-78
2023/10/30 01:30:11;;;;;;;12.03;4.27;;;;;;;13.41;52.60;100688.19;124724;1105;104217;-78
2023/10/30 01:32:39;;;;;;;12.50;4.00;;;;;;;13.39;52.53;100692.54;124878;1105;102128;-79
2023/10/30 01:35:09;;;;;;;12.27;4.57;;;;;;;13.39;52.24;100693.42;124924;1105;104188;-78
2023/10/30 01:37:37;;;;;;;9.67;4.03;;;;;;;13.38;51.83;100698.65;125121;1105;102607;-79
2023/10/30 01:40:10;;;;;;;13.93;4.80;;;;;;;13.39;52.22;100692.54;125207;1105;102010;-79
2023/10/30 01:42:38;;;;;;;10.73;4.73;;;;;;;13.38;52.38;100693.38;124859;1105;101917;-79
2023/10/30 01:45:09;;;;;;;16.20;4.43;;;;;;;13.39;52.05;100692.54;124943;1105;101999;-76
2023/10/30 01:47:45;;;;;;;12.00;4.67;;;;;;;13.40;52.42;100694.30;124950;1105;101868;-77
2023/10/30 01:50:15;;;;;;;16.40;4.80;;;;;;;13.41;52.07;100694.34;125157;1105;102376;-76
2023/10/30 01:55:41;;;;;;;13.47;4.43;;;;;;;13.40;52.24;100689.03;126205;1096;103190;-78
2023/10/30 01:58:11;;;;;;;12.17;4.27;;;;;;;13.41;52.43;100675.02;126080;1096;102150;-79
2023/10/30 02:00:46;;;;;;;12.10;4.47;;;;;;;13.41;52.56;100672.38;125736;1103;101755;31
2023/10/30 02:03:14;;;;;;;13.10;4.80;;;;;;;13.38;52.17;100673.17;124754;1106;104118;-75
2023/10/30 02:05:44;;;;;;;9.13;4.10;;;;;;;13.36;52.55;100668.73;124801;1105;104497;-75
2023/10/30 02:08:15;;;;;;;13.90;4.30;;;;;;;13.27;52.46;100674.60;124672;1105;102268;-78
2023/10/30 02:10:44;;;;;;;11.83;4.63;;;;;;;13.17;52.59;100665.56;125127;1105;102025;-78
2023/10/30 02:13:13;;;;;;;15.00;4.33;;;;;;;13.10;52.26;100675.05;124901;1106;102096;-79
2023/10/30 02:39:35;;;;;;;13.43;4.30;;;;;;;13.02;52.64;100686.20;125773;1102;102391;31
2023/10/30 02:42:08;;;;;;;10.20;4.47;;;;;;;13.04;52.86;100674.87;125546;1102;103178;-78
2023/10/30 02:44:50;;;;;;;10.30;4.20;;;;;;;13.05;52.84;100667.84;125474;1102;102985;31
2023/10/30 02:47:23;;;;;;;12.90;4.60;;;;;;;13.03;52.95;100661.66;124222;1113;102232;-78
2023/10/30 02:52:50;;;;;;;13.97;4.43;;;;;;;13.02;52.99;100673.03;125465;1102;103169;-77
2023/10/30 03:10:26;;;;;;;9.13;3.63;;;;;;;12.98;52.83;100698.40;126490;1089;950411;-78
2023/10/30 03:12:55;;;;;;;14.23;4.60;;;;;;;12.97;53.16;100698.36;127225;1093;101719;-79
2023/10/30 03:15:24;;;;;;;14.40;4.37;;;;;;;12.94;53.20;100689.48;126868;1092;101809;-78
2023/10/30 03:17:53;;;;;;;9.33;4.20;;;;;;;12.94;53.22;100691.24;126641;1092;102106;-78
2023/10/30 03:20:21;;;;;;;8.93;4.10;;;;;;;12.94;53.44;100692.13;126298;1090;104165;-76
2023/10/30 03:22:50;;;;;;;12.47;4.53;;;;;;;12.95;53.50;100695.67;126174;1091;101993;-78
2023/10/30 03:25:20;;;;;;;12.23;4.10;;;;;;;12.95;53.50;100700.94;126459;1093;102140;-78
2023/10/30 03:27:48;;;;;;;13.33;4.30;;;;;;;12.95;53.47;100698.31;126297;1093;102406;-78
2023/10/30 03:30:17;;;;;;;11.10;4.50;;;;;;;12.93;53.41;100699.98;126273;1091;104255;-77
2023/10/30 03:32:46;;;;;;;13.50;4.10;;;;;;;12.91;53.53;100694.67;126579;1092;101928;-77
2023/10/30 03:35:14;;;;;;;13.40;4.20;;;;;;;12.91;53.44;100694.67;126349;1092;104197;-76
2023/10/30 03:37:43;;;;;;;13.57;4.80;;;;;;;12.92;53.53;100690.31;126412;1092;104210;-76
2023/10/30 03:40:13;;;;;;;17.10;4.73;;;;;;;12.91;53.46;100697.30;126238;1092;104232;-76
2023/10/30 03:42:42;;;;;;;19.80;4.70;;;;;;;12.89;53.23;100706.91;126142;1093;101838;-76
2023/10/30 03:45:11;;;;;;;17.23;5.63;;;;;;;12.91;53.65;100710.47;126115;1093;104175;-76
2023/10/30 03:47:43;;;;;;;24.10;5.13;;;;;;;12.89;53.57;100706.91;126245;1092;101957;-77
2023/10/30 03:50:13;;;;;;;14.75;4.70;;;;;;;12.89;53.59;100706.03;126136;1090;104344;-76
2023/10/30 03:52:43;;;;;;;22.07;5.17;;;;;;;12.87;53.80;100703.35;126173;1092;104181;-76
2023/10/30 03:55:11;;;;;;;22.00;5.37;;;;;;;12.83;53.93;100706.73;126109;1092;104168;-76
2023/10/30 03:57:41;;;;;;;16.17;4.53;;;;;;;12.80;54.10;100704.00;126110;1092;102177;-76
2023/10/30 04:00:12;;;;;;;14.57;4.40;;;;;;;12.79;53.78;100696.94;126141;1091;104036;-77
2023/10/30 04:02:41;;;;;;;13.73;4.33;;;;;;;12.76;53.90;100695.13;126064;1093;104238;-76
2023/10/30 04:05:10;;;;;;;15.70;3.80;;;;;;;12.75;53.83;100695.97;126191;1092;104300;-76
2023/10/30 04:07:39;;;;;;;10.93;4.00;;;;;;;12.74;53.95;100696.80;126125;1090;104213;-76
2023/10/30 04:10:09;;;;;;;10.77;3.97;;;;;;;12.75;54.04;100689.81;126221;1092;104165;-77
2023/10/30 04:12:38;;;;;;;10.90;4.23;;;;;;;12.75;54.46;100687.19;126262;1092;102619;-77
2023/10/30 04:15:10;;;;;;;8.23;3.70;;;;;;;12.75;53.93;100684.55;126224;1093;104365;-77
2023/10/30 04:17:39;;;;;;;10.50;4.27;;;;;;;12.74;54.10;100682.75;126543;1093;104297;-76
2023/10/30 04:20:10;;;;;;;16.33;4.20;;;;;;;12.74;54.13;100688.91;126243;1093;104172;-77
2023/10/30 04:22:38;;;;;;;10.85;3.70;;;;;;;12.76;54.21;100678.41;126530;1090;102272;-76
2023/10/30 04:25:09;;;;;;;14.83;4.00;;;;;;;12.77;54.39;100670.56;126591;1093;104029;-77
2023/10/30 04:27:37;;;;;;;13.37;3.60;;;;;;;12.79;54.35;100661.83;126804;1092;101819;-76
2023/10/30 04:30:09;;;;;;;12.13;3.63;;;;;;;12.81;54.46;100668.02;126949;1089;103273;-77
2023/10/30 04:32:38;;;;;;;11.57;3.73;;;;;;;12.81;54.51;100663.67;126893;1086;101816;-77
2023/10/30 04:35:08;;;;;;;15.23;3.73;;;;;;;12.82;54.67;100665.43;126603;1089;104158;-77
2023/10/30 04:37:37;;;;;;;14.07;4.10;;;;;;;12.82;54.71;100668.06;126645;1086;102045;-76
2023/10/30 04:40:08;;;;;;;13.90;4.53;;;;;;;12.77;54.84;100678.46;126599;1086;104159;-76
2023/10/30 04:42:36;;;;;;;21.20;4.73;;;;;;;12.70;54.73;100678.23;126584;1089;104155;-75
2023/10/30 04:45:07;;;;;;;13.40;4.00;;;;;;;12.64;55.35;100672.81;126563;1087;104324;-76
2023/10/30 04:47:35;;;;;;;17.83;4.40;;;;;;;12.58;55.28;100676.14;126751;1086;104165;-76
2023/10/30 04:50:05;;;;;;;21.60;4.47;;;;;;;12.56;55.46;100673.47;126692;1087;104213;-77
2023/10/30 04:52:33;;;;;;;20.93;4.90;;;;;;;12.58;55.54;100676.14;126690;1089;104220;-76
2023/10/30 04:55:02;;;;;;;15.67;4.77;;;;;;;12.60;55.31;100677.08;126825;1089;104289;-76
2023/10/30 04:57:31;;;;;;;11.87;4.10;;;;;;;12.62;55.56;100685.02;126778;1089;104207;-76
2023/10/30 04:59:59;;;;;;;13.40;4.57;;;;;;;12.64;55.90;100689.49;126729;1086;104248;-77
2023/10/30 05:02:28;;;;;;;11.47;3.90;;;;;;;12.66;55.61;100697.44;126775;1084;102131;-77
2023/10/30 05:04:56;;;;;;;30.17;6.33;;;;;;;12.70;55.80;100696.66;126945;1086;102236;-77
2023/10/30 05:07:25;;;;;;;15.93;4.50;;;;;;;12.73;55.58;100686.22;127846;1089;101917;-76
2023/10/30 05:09:53;;;;;;;25.63;5.83;;;;;;;12.77;56.17;100690.74;127863;1089;101821;-76
2023/10/30 05:12:22;;;;;;;45.00;5.90;;;;;;;12.80;55.89;100688.20;127483;1089;101967;-76
2023/10/30 05:14:51;;;;;;;27.80;5.37;;;;;;;12.84;56.24;100695.36;126601;1089;101912;-76
2023/10/30 05:17:19;;;;;;;22.77;5.07;;;;;;;12.86;55.91;100700.67;126467;1086;101826;-76
2023/10/30 05:19:48;;;;;;;14.13;3.93;;;;;;;12.87;55.84;100698.08;126450;1086;101822;-76
2023/10/30 05:22:17;;;;;;;28.23;4.90;;;;;;;12.87;56.32;100698.08;126277;1089;102301;-75
2023/10/30 05:24:46;;;;;;;14.97;4.73;;;;;;;12.87;56.58;100694.53;126337;1086;102473;-76
2023/10/30 05:27:15;;;;;;;13.03;4.00;;;;;;;12.87;56.38;100694.53;126373;1089;104216;-76
2023/10/30 05:29:43;;;;;;;9.77;4.20;;;;;;;12.92;56.62;100700.85;126593;1086;102228;-76
2023/10/30 05:32:12;;;;;;;13.13;4.07;;;;;;;12.99;56.82;100707.19;126659;1086;102567;-77
2023/10/30 05:34:40;;;;;;;14.50;4.07;;;;;;;13.05;56.38;100696.83;126567;1089;102526;-79
2023/10/30 05:37:09;;;;;;;15.43;4.20;;;;;;;13.12;56.24;100698.80;126400;1086;104280;-77
2023/10/30 05:39:38;;;;;;;12.67;3.70;;;;;;;13.18;56.60;100703.33;127034;1086;101794;-78
2023/10/30 05:42:07;;;;;;;10.07;4.20;;;;;;;13.25;56.59;100705.30;126677;1085;101838;-76
2023/10/30 05:44:36;;;;;;;17.20;4.70;;;;;;;13.35;56.61;100706.47;126446;1086;101980;-76
2023/10/30 05:47:06;;;;;;;16.03;4.50;;;;;;;13.43;57.33;100708.48;126499;1086;104220;-77
2023/10/30 05:49:35;;;;;;;12.80;4.23;;;;;;;13.50;56.85;100711.28;126598;1086;104110;-76
2023/10/30 05:52:04;;;;;;;14.57;4.27;;;;;;;13.56;57.22;100707.06;126787;1086;102475;-78
2023/10/30 05:54:33;;;;;;;15.30;4.73;;;;;;;13.62;57.18;100701.95;126478;1086;104225;-78
2023/10/30 05:57:02;;;;;;;16.43;4.93;;;;;;;13.69;56.78;100703.00;126390;1086;104287;-75
2023/10/30 05:59:30;;;;;;;24.27;5.00;;;;;;;13.73;56.71;100703.95;126652;1086;102045;-78
2023/10/30 06:01:59;;;;;;;17.40;4.87;;;;;;;13.78;57.02;100712.91;126685;1086;102072;-76
2023/10/30 06:04:28;;;;;;;14.83;4.53;;;;;;;13.83;57.71;100709.52;126672;1086;104117;-77
2023/10/30 06:06:57;;;;;;;16.50;4.93;;;;;;;13.92;57.10;100708.86;127819;1086;101683;-77
2023/10/30 06:09:26;;;;;;;20.73;4.87;;;;;;;13.99;57.62;100712.55;126626;1086;102303;-76
2023/10/30 06:11:55;;;;;;;13.80;4.33;;;;;;;14.07;57.28;100725.92;126826;1086;104284;-76
2023/10/30 06:14:24;;;;;;;16.77;4.87;;;;;;;14.16;57.16;100728.80;126792;1086;104365;-76
2023/10/30 06:16:54;;;;;;;16.73;4.70;;;;;;;14.25;57.86;100726.39;126603;1086;104174;-76
2023/10/30 06:19:23;;;;;;;17.03;4.80;;;;;;;14.35;56.94;100731.05;126560;1086;104401;-76
2023/10/30 06:21:52;;;;;;;13.53;4.83;;;;;;;14.44;57.29;100735.63;126593;1086;101834;-77
2023/10/30 06:24:20;;;;;;;16.70;4.67;;;;;;;14.53;57.44;100732.33;126446;1086;102400;-77
2023/10/30 06:26:49;;;;;;;16.70;4.70;;;;;;;14.61;57.96;100733.42;126648;1086;101938;-78
2023/10/30 06:29:18;;;;;;;17.17;4.87;;;;;;;14.71;57.96;100734.55;126333;1086;102069;-76
2023/10/30 06:31:47;;;;;;;13.23;4.43;;;;;;;14.79;57.85;100726.76;126350;1089;104321;-77
2023/10/30 06:34:16;;;;;;;19.40;5.30;;;;;;;14.86;57.47;100723.41;126503;1086;104203;-74
2023/10/30 06:36:47;;;;;;;18.53;4.77;;;;;;;14.94;57.20;100719.17;126258;1089;104152;-76
2023/10/30 06:39:20;;;;;;;24.03;4.97;;;;;;;15.07;57.49;100718.58;126691;1086;102137;-75
2023/10/30 06:41:54;;;;;;;15.27;5.33;;;;;;;15.19;57.40;100709.11;126244;1089;102026;-75
2023/10/30 06:44:24;;;;;;;17.00;4.83;;;;;;;15.29;57.95;100711.09;126332;1086;104194;-75
2023/10/30 06:46:54;;;;;;;19.73;4.67;;;;;;;15.41;57.06;100707.77;126412;1086;102143;-77
2023/10/30 06:49:23;;;;;;;15.30;4.47;;;;;;;15.51;57.40;100714.16;126718;1084;104149;-76
2023/10/30 06:51:55;;;;;;;16.45;4.65;;;;;;;15.60;57.88;100706.39;126166;1086;102312;-77
2023/10/30 06:54:23;;;;;;;10.93;4.20;;;;;;;15.69;57.03;100709.20;126653;1086;101877;-78
2023/10/30 06:56:54;;;;;;;13.17;4.70;;;;;;;15.76;57.26;100705.79;126618;1086;104156;-77
2023/10/30 06:59:23;;;;;;;11.13;4.70;;;;;;;15.85;57.98;100706.84;126780;1086;101761;-80
2023/10/30 07:01:54;;;;;;;15.43;4.43;;;;;;;15.94;57.36;100701.70;127006;1086;103579;-78
2023/10/30 07:04:22;;;;;;;15.70;4.70;;;;;;;16.05;57.78;100701.89;126644;1089;102171;-76
2023/10/30 07:06:51;;;;;;;13.20;4.10;;;;;;;16.14;57.63;100705.59;126871;1086;102001;-80
2023/10/30 07:09:20;;;;;;;13.33;4.40;;;;;;;16.24;57.69;100701.34;127457;1086;102286;-78
2023/10/30 07:11:49;;;;;;;10.57;3.80;;;;;;;16.37;57.11;100697.11;126662;1089;104274;-78
2023/10/30 07:14:18;;;;;;;10.93;4.07;;;;;;;16.47;57.09;100696.39;127009;1086;101981;-83
2023/10/30 07:16:50;;;;;;;13.43;4.07;;;;;;;16.52;57.22;100678.80;127500;1089;101998;-84
2023/10/30 07:19:23;;;;;;;12.30;3.83;;;;;;;16.71;56.98;100690.53;127424;1086;101772;-77
2023/10/30 07:21:55;;;;;;;11.57;3.93;;;;;;;16.81;57.46;100683.63;126895;1086;104184;-77
2023/10/30 07:24:33;;;;;;;13.53;4.23;;;;;;;16.91;57.08;100686.39;126627;1086;104191;-78
2023/10/30 07:27:02;;;;;;;13.00;4.20;;;;;;;17.00;56.80;100682.12;126536;1086;104149;-74
2023/10/30 07:29:34;;;;;;;12.23;4.27;;;;;;;17.10;57.01;100680.45;126702;1086;104050;-79
2023/10/30 07:32:08;;;;;;;13.53;4.90;;;;;;;17.22;56.76;100680.60;126675;1086;101842;-77
2023/10/30 07:34:42;;;;;;;14.20;4.40;;;;;;;17.33;56.79;100683.38;126833;1086;104146;-76
2023/10/30 07:37:25;;;;;;;10.17;4.20;;;;;;;17.45;56.64;100690.55;126399;1085;104152;-75
2023/10/30 07:39:55;;;;;;;11.00;4.40;;;;;;;17.58;56.40;100683.64;126474;1086;104281;-74
2023/10/30 07:42:24;;;;;;;13.40;4.30;;;;;;;17.71;56.17;100682.86;126992;1086;101816;-74
2023/10/30 07:44:55;;;;;;;12.87;4.70;;;;;;;17.85;56.31;100680.33;126540;1086;104207;-76
2023/10/30 07:47:26;;;;;;;13.97;4.20;;;;;;;17.96;56.17;100681.34;126740;1086;104191;-79
2023/10/30 07:49:56;;;;;;;12.00;3.80;;;;;;;18.06;56.07;100681.41;127397;1089;104223;-79
2023/10/30 07:52:25;;;;;;;9.67;3.90;;;;;;;18.16;55.92;100680.63;127416;1086;103061;-77
2023/10/30 07:54:55;;;;;;;8.70;3.43;;;;;;;18.29;55.57;100671.88;126805;1086;104155;-85
2023/10/30 07:57:34;;;;;;;11.57;4.00;;;;;;;18.41;55.80;100665.73;127755;1086;104412;-81
2023/10/30 08:00:14;;;;;;;9.67;3.50;;;;;;;18.52;55.61;100671.11;127256;1086;104117;-73
2023/10/30 08:02:46;;;;;;;9.97;3.40;;;;;;;18.64;55.11;100668.53;126659;1086;104155;-76
2023/10/30 08:05:18;;;;;;;7.30;3.10;;;;;;;18.77;55.52;100669.47;126633;1089;101940;-80
2023/10/30 08:07:47;;;;;;;9.40;3.17;;;;;;;18.90;55.11;100661.58;127697;1086;104204;-75
2023/10/30 08:10:17;;;;;;;10.17;3.30;;;;;;;19.03;54.75;100660.77;126573;1086;101916;-77
2023/10/30 08:12:46;;;;;;;8.97;3.40;;;;;;;19.16;55.25;100665.22;126518;1086;104207;-76
2023/10/30 08:15:15;;;;;;;14.33;3.63;;;;;;;19.30;54.65;100667.05;126497;1086;102310;-78
2023/10/30 08:17:44;;;;;;;8.33;3.23;;;;;;;19.43;53.98;100667.95;126552;1086;104165;-79
2023/10/30 08:20:14;;;;;;;11.70;3.33;;;;;;;19.53;54.06;100667.09;126446;1089;102147;-76
2023/10/30 08:22:43;;;;;;;13.30;3.30;;;;;;;19.64;54.21;100660.00;126854;1086;104145;-76
2023/10/30 08:25:14;;;;;;;10.77;3.43;;;;;;;19.78;53.81;100672.48;126383;1086;104354;-77
2023/10/30 08:27:43;;;;;;;10.63;3.13;;;;;;;19.89;53.93;100660.92;126399;1086;104168;-75
2023/10/30 08:30:14;;;;;;;7.35;3.40;;;;;;;20.02;53.66;100664.47;127841;1085;101962;-84
2023/10/30 08:32:42;;;;;;;9.40;3.30;;;;;;;20.17;52.48;100658.25;126622;1089;102444;-75
2023/10/30 08:35:13;;;;;;;10.37;3.47;;;;;;;20.29;52.95;100649.36;127679;1085;104277;-77
2023/10/30 08:37:43;;;;;;;12.10;3.53;;;;;;;20.41;52.81;100657.34;126430;1089;101999;-79
2023/10/30 08:40:15;;;;;;;14.27;3.37;;;;;;;20.52;51.74;100649.31;127723;1085;102275;-77
2023/10/30 08:42:48;;;;;;;15.20;3.50;;;;;;;20.64;52.58;100656.37;127876;1085;101820;-75
2023/10/30 08:45:17;;;;;;;11.17;3.40;;;;;;;20.75;52.06;100640.37;128619;1085;104044;-81
2023/10/30 08:48:02;;;;;;;10.23;3.10;;;;;;;20.85;51.81;100642.11;128075;1085;101918;-81
2023/10/30 08:50:35;;;;;;;14.35;3.50;;;;;;;20.97;51.28;100635.81;128206;1085;101739;-79
2023/10/30 08:53:04;;;;;;;9.57;3.30;;;;;;;21.05;51.09;100647.36;127432;1089;101988;-81
2023/10/30 08:55:50;;;;;;;;;;;;;;;;;;;;;
2023/10/30 08:58:25;;;;;;;10.33;3.20;;;;;;;21.23;50.17;100637.47;127668;1086;102899;-84
2023/10/30 09:00:59;;;;;;;7.90;3.05;;;;;;;21.30;50.74;100633.85;128353;1086;101533;-85
2023/10/30 09:03:29;;;;;;;9.85;3.22;;;;;;;21.41;50.46;100625.77;128985;1085;101074;-85
2023/10/30 09:06:06;;;;;;;9.63;3.47;;;;;;;21.48;49.93;100620.38;127454;1086;104280;-85
2023/10/30 09:08:43;;;;;;;10.13;3.07;;;;;;;21.59;49.66;100624.80;127209;1086;104271;-82
2023/10/30 09:11:23;;;;;;;8.75;3.35;;;;;;;21.69;49.37;100637.16;127740;1086;101951;-82
2023/10/30 09:14:11;;;;;;;14.43;3.50;;;;;;;21.77;48.53;100626.42;128197;1085;101965;-79
2023/10/30 09:16:48;;;;;;;12.40;3.30;;;;;;;21.84;48.66;100634.37;126695;1086;104214;-83
2023/10/30 09:19:38;;;;;;;6.37;2.83;;;;;;;21.95;48.39;100620.05;127243;1086;104161;-82
2023/10/30 09:22:07;;;;;;;9.47;3.07;;;;;;;22.06;48.32;100608.37;127853;1086;101800;-84
2023/10/30 09:24:36;;;;;;;9.00;2.80;;;;;;;22.16;47.89;100611.82;127202;1090;104024;-84
2023/10/30 09:27:09;;;;;;;9.00;3.20;;;;;;;22.24;46.98;100612.62;127286;1086;101934;-83
2023/10/30 09:29:38;;;;;;;8.37;3.03;;;;;;;22.32;47.36;100611.69;126761;1090;101919;-81
2023/10/30 09:32:08;;;;;;;8.47;2.80;;;;;;;22.34;46.52;100605.41;127406;1086;101662;-85
2023/10/30 09:34:38;;;;;;;10.37;3.57;;;;;;;22.42;46.94;100605.32;126537;1087;103550;-80
2023/10/30 09:37:08;;;;;;;9.00;3.10;;;;;;;22.47;46.56;100592.81;127611;1086;102203;-83
2023/10/30 09:39:39;;;;;;;9.47;2.70;;;;;;;22.52;46.04;100588.28;127195;1086;101831;-82
2023/10/30 09:42:09;;;;;;;8.87;3.00;;;;;;;22.57;45.90;100580.20;127402;1086;102000;-79
2023/10/30 09:44:38;;;;;;;10.53;2.97;;;;;;;22.65;45.60;100580.11;126611;1086;104159;-77
2023/10/30 09:47:08;;;;;;;5.85;2.90;;;;;;;22.71;45.08;100580.91;126538;1086;104175;-77
2023/10/30 09:49:38;;;;;;;9.80;2.90;;;;;;;22.82;45.57;100585.23;126456;1086;104159;-75
2023/10/30 09:52:08;;;;;;;10.30;3.30;;;;;;;22.88;44.91;100585.16;126492;1086;104177;-77
2023/10/30 09:54:37;;;;;;;11.27;3.37;;;;;;;22.96;44.79;100575.22;126408;1086;102063;-78
2023/10/30 09:57:08;;;;;;;10.47;2.83;;;;;;;23.02;45.02;100577.81;126349;1089;101918;-77
2023/10/30 09:59:43;;;;;;;6.67;2.70;;;;;;;23.10;44.71;100577.73;126722;1086;105540;-81
2023/10/30 10:02:12;;;;;;;10.17;3.43;;;;;;;23.20;44.38;100582.02;126420;1086;102190;-77
2023/10/30 10:04:41;;;;;;;11.43;2.70;;;;;;;23.32;44.11;100573.80;126438;1086;104225;-78
2023/10/30 10:07:13;;;;;;;6.27;2.67;;;;;;;23.39;44.21;100574.61;126430;1086;102103;-81
2023/10/30 10:10:08;;;;;;;7.83;2.77;;;;;;;23.47;43.62;100571.81;126789;1086;103260;-82
2023/10/30 10:12:37;;;;;;;5.47;2.70;;;;;;;23.51;43.44;100574.41;127570;1086;104493;-83
2023/10/30 10:15:11;;;;;;;8.83;2.70;;;;;;;23.48;42.87;100576.23;127025;1086;101977;-82
2023/10/30 10:17:45;;;;;;;10.63;3.17;;;;;;;23.41;42.57;100566.55;128365;1085;104155;-84
2023/10/30 10:23:24;;;;;;;9.60;2.85;;;;;;;23.29;42.20;100559.59;127678;1085;104200;-77
2023/10/30 10:25:56;;;;;;;8.87;2.87;;;;;;;23.23;42.00;100557.88;127676;1085;101914;-77
2023/10/30 10:28:26;;;;;;;12.17;2.90;;;;;;;23.19;41.53;100552.60;126057;1086;104018;-74
2023/10/30 10:30:58;;;;;;;7.17;2.27;;;;;;;23.13;41.21;100554.47;126490;1086;102305;-74
2023/10/30 10:33:28;;;;;;;16.83;4.53;;;;;;;23.11;41.05;100560.78;127603;1085;101974;-74
2023/10/30 10:36:03;;;;;;;11.77;3.03;;;;;;;23.10;40.96;100554.52;126595;1086;102262;-79
2023/10/30 10:38:36;;;;;;;15.27;3.20;;;;;;;23.08;40.42;100553.67;127825;1085;102924;-78
2023/10/30 10:41:09;;;;;;;12.07;3.50;;;;;;;23.09;40.43;100557.22;127110;1086;101990;-78
2023/10/30 10:43:41;;;;;;;10.90;2.85;;;;;;;23.09;40.11;100557.22;126896;1086;104219;-79
2023/10/30 10:46:12;;;;;;;8.97;2.77;;;;;;;23.07;40.05;100556.34;126347;1086;101972;-77
2023/10/30 10:48:41;;;;;;;11.27;2.73;;;;;;;23.05;39.64;100556.36;126601;1086;102389;-77
2023/10/30 10:51:14;;;;;;;5.60;2.10;;;;;;;23.05;39.51;100551.01;126578;1086;104232;-81
2023/10/30 10:53:49;;;;;;;;;;;;;;;23.04;39.19;100548.36;128199;1085;102001;-80
2023/10/30 10:56:53;;;;;;;5.90;2.57;;;;;;;23.01;38.56;100551.08;126964;1086;104069;-81
2023/10/30 10:59:29;;;;;;;5.03;2.60;;;;;;;23.01;38.76;100551.95;126376;1086;104225;-75
2023/10/30 11:02:00;;;;;;;6.10;2.50;;;;;;;23.03;38.64;100544.80;127208;1086;102451;-78
2023/10/30 11:04:35;;;;;;;7.37;2.90;;;;;;;23.06;38.21;100538.50;127205;1086;101837;-79
2023/10/30 11:07:12;;;;;;;6.37;3.00;;;;;;;23.08;38.01;100523.33;126336;1089;104433;-75
2023/10/30 11:09:45;;;;;;;7.33;2.42;;;;;;;23.08;37.82;100524.23;127903;1085;102076;-77
2023/10/30 11:12:31;;;;;;;7.70;2.50;;;;;;;23.08;37.85;100529.58;128354;1085;101909;-78
2023/10/30 11:15:08;;;;;;;6.37;2.20;;;;;;;23.09;37.91;100519.75;128397;1089;101585;-77
2023/10/30 11:17:51;;;;;;;6.57;2.70;;;;;;;23.11;37.75;100524.19;129354;1085;101811;-77
2023/10/30 11:20:31;;;;;;;4.77;2.50;;;;;;;23.12;37.78;100517.94;126829;1086;102952;-78
2023/10/30 11:23:00;;;;;;;8.07;2.67;;;;;;;23.12;37.65;100514.35;128554;1085;101915;-77
2023/10/30 11:25:54;;;;;;;11.20;2.93;;;;;;;23.13;37.46;100500.08;127958;1086;104284;-80
2023/10/30 11:28:28;;;;;;;5.70;2.97;;;;;;;23.14;37.75;100502.73;128118;1089;102005;-77
2023/10/30 11:31:12;;;;;;;7.13;2.77;;;;;;;23.14;37.51;100497.38;126792;1086;104284;-80
2023/10/30 11:33:43;;;;;;;11.83;3.33;;;;;;;23.15;37.57;100503.59;127340;1086;102585;-76
2023/10/30 11:36:34;;;;;;;8.43;2.90;;;;;;;23.17;37.14;100498.22;128010;1085;102325;-78
2023/10/30 11:39:20;;;;;;;7.20;2.77;;;;;;;23.18;37.00;100508.03;127868;1085;101820;-78
2023/10/30 11:41:52;;;;;;;5.77;2.40;;;;;;;23.19;37.00;100508.01;127955;1085;101838;-82
2023/10/30 11:44:28;;;;;;;9.48;2.70;;;;;;;23.19;36.84;100510.69;127043;1086;102009;-79
2023/10/30 11:46:58;;;;;;;8.40;2.67;;;;;;;23.21;37.09;100502.63;126729;1086;104329;-76
2023/10/30 11:49:32;;;;;;;10.63;3.07;;;;;;;23.21;36.89;100486.56;126530;1086;104277;-80
2023/10/30 11:52:09;;;;;;;10.03;3.00;;;;;;;23.20;36.48;100491.02;126979;1086;101948;-78
2023/10/30 11:54:41;;;;;;;6.37;2.37;;;;;;;23.20;36.21;100495.50;126360;1086;104165;-79
2023/10/30 11:57:10;;;;;;;10.00;3.10;;;;;;;23.19;35.63;100473.21;127422;1089;103478;-76
2023/10/30 11:59:39;;;;;;;9.23;3.03;;;;;;;23.19;36.09;100488.36;127594;1086;102131;-80
2023/10/30 12:02:08;;;;;;;4.87;2.70;;;;;;;23.19;35.72;100491.04;127878;1086;101905;-79
2023/10/30 12:04:39;;;;;;;7.63;2.37;;;;;;;23.18;35.63;100476.78;128060;1086;101768;-80
2023/10/30 12:07:08;;;;;;;9.93;2.90;;;;;;;23.21;35.74;100474.05;126490;1086;104163;-78
2023/10/30 12:09:38;;;;;;;6.87;2.57;;;;;;;23.22;35.86;100475.84;126687;1086;102340;-78